createdAt,value
2023-03-19T00:01:38.847Z,20.27
2023-03-19T00:04:08.144Z,23.10
2023-03-19T00:06:36.933Z,21.73
2023-03-19T00:09:05.734Z,20.83
2023-03-19T00:11:34.892Z,19.27
2023-03-19T00:14:03.551Z,20.93
2023-03-19T00:16:33.623Z,27.33
2023-03-19T00:19:02.938Z,23.03
2023-03-19T00:21:32.581Z,21.37
2023-03-19T00:24:02.539Z,21.17
2023-03-19T00:26:31.949Z,23.17
2023-03-19T00:29:01.534Z,22.30
2023-03-19T00:31:31.131Z,24.27
2023-03-19T00:34:01.601Z,23.20
2023-03-19T00:36:31.792Z,25.07
2023-03-19T00:39:00.359Z,23.67
2023-03-19T00:41:29.118Z,21.63
2023-03-19T00:43:58.936Z,21.90
2023-03-19T00:46:27.905Z,21.47
2023-03-19T00:48:56.724Z,20.40
2023-03-19T00:51:27.603Z,20.60
2023-03-19T00:53:56.549Z,21.00
2023-03-19T00:56:25.163Z,22.63
2023-03-19T00:58:53.952Z,22.97
2023-03-19T01:01:22.526Z,25.33
2023-03-19T01:03:51.647Z,23.50
2023-03-19T01:06:20.822Z,22.23
2023-03-19T01:08:51.043Z,21.37
2023-03-19T01:11:19.558Z,23.33
2023-03-19T01:13:48.298Z,22.43
2023-03-19T01:16:16.844Z,29.07
2023-03-19T01:18:46.076Z,22.37
2023-03-19T01:21:14.792Z,23.77
2023-03-19T01:23:43.912Z,22.90
2023-03-19T01:26:13.826Z,21.73
2023-03-19T01:28:43.564Z,22.03
2023-03-19T01:31:12.418Z,20.70
2023-03-19T01:33:41.034Z,21.83
2023-03-19T01:36:11.361Z,21.17
2023-03-19T01:38:40.164Z,22.60
2023-03-19T01:41:08.907Z,21.07
2023-03-19T01:43:39.191Z,20.33
2023-03-19T01:46:11.212Z,20.43
2023-03-19T01:48:42.984Z,19.53
2023-03-19T01:51:13.575Z,19.23
2023-03-19T01:53:45.109Z,19.37
2023-03-19T01:56:16.967Z,18.43
2023-03-19T01:58:49.967Z,19.43
2023-03-19T02:01:20.692Z,17.97
2023-03-19T02:03:51.243Z,22.43
2023-03-19T02:06:22.166Z,19.63
2023-03-19T02:08:53.295Z,22.20
2023-03-19T02:11:22.561Z,17.47
2023-03-19T02:13:52.597Z,17.53
2023-03-19T02:16:22.185Z,18.47
2023-03-19T02:18:50.731Z,17.83
2023-03-19T02:21:21.736Z,17.73
2023-03-19T02:23:58.383Z,19.17
2023-03-19T02:26:30.888Z,18.03
2023-03-19T02:28:59.515Z,19.23
2023-03-19T02:31:28.223Z,21.87
2023-03-19T02:34:02.141Z,19.97
2023-03-19T02:36:34.151Z,19.67
2023-03-19T02:39:05.708Z,19.20
2023-03-19T02:41:38.038Z,18.40
2023-03-19T02:44:07.603Z,18.77
2023-03-19T02:46:36.202Z,18.33
2023-03-19T02:49:05.450Z,18.43
2023-03-19T02:51:34.010Z,18.03
2023-03-19T02:54:02.782Z,18.17
2023-03-19T02:56:31.467Z,18.43
2023-03-19T02:59:01.658Z,18.60
2023-03-19T03:01:30.755Z,18.50
2023-03-19T03:03:59.537Z,19.13
2023-03-19T03:06:28.183Z,17.67
2023-03-19T03:08:56.733Z,17.10
2023-03-19T03:11:25.436Z,18.00
2023-03-19T03:13:55.624Z,19.03
2023-03-19T03:16:26.568Z,16.67
2023-03-19T03:18:55.381Z,17.13
2023-03-19T03:21:24.196Z,18.30
2023-03-19T03:23:53.567Z,20.53
2023-03-19T03:26:22.151Z,18.73
2023-03-19T03:28:50.802Z,17.13
2023-03-19T03:31:20.154Z,17.93
2023-03-19T03:33:51.947Z,17.63
2023-03-19T03:36:20.820Z,21.07
2023-03-19T03:38:49.415Z,18.27
2023-03-19T03:41:18.033Z,18.63
2023-03-19T03:43:46.576Z,18.33
2023-03-19T03:46:15.404Z,23.03
2023-03-19T03:48:43.922Z,22.53
2023-03-19T03:51:13.900Z,18.13
2023-03-19T03:53:42.544Z,17.27
2023-03-19T03:56:11.386Z,16.37
2023-03-19T03:58:39.826Z,18.90
2023-03-19T04:01:09.042Z,19.87
2023-03-19T04:03:37.753Z,18.33
2023-03-19T04:06:07.249Z,16.40
2023-03-19T04:08:37.197Z,17.17
2023-03-19T04:11:09.060Z,16.30
2023-03-19T04:13:37.899Z,16.27
2023-03-19T04:16:08.098Z,18.80
2023-03-19T04:18:36.922Z,15.70
2023-03-19T04:21:06.675Z,17.83
2023-03-19T04:23:36.667Z,15.07
2023-03-19T04:26:07.585Z,16.10
2023-03-19T04:28:36.473Z,15.43
2023-03-19T04:31:06.251Z,16.37
2023-03-19T04:33:35.725Z,16.27
2023-03-19T04:36:05.049Z,16.67
2023-03-19T04:38:33.877Z,16.50
2023-03-19T04:41:04.326Z,16.37
2023-03-19T04:43:32.919Z,15.23
2023-03-19T04:46:02.008Z,15.33
2023-03-19T04:48:30.740Z,16.07
2023-03-19T04:50:59.656Z,16.80
2023-03-19T04:53:28.521Z,14.50
2023-03-19T04:55:57.509Z,16.27
2023-03-19T04:58:27.792Z,16.03
2023-03-19T05:00:56.246Z,14.93
2023-03-19T05:03:24.778Z,16.17
2023-03-19T05:05:55.312Z,17.80
2023-03-19T05:08:23.791Z,15.73
2023-03-19T05:10:52.678Z,15.27
2023-03-19T05:13:21.839Z,15.73
2023-03-19T05:15:55.708Z,15.73
2023-03-19T05:18:24.391Z,15.43
2023-03-19T05:20:54.746Z,15.13
2023-03-19T05:23:23.536Z,18.27
2023-03-19T05:25:52.047Z,15.63
2023-03-19T05:28:20.744Z,17.37
2023-03-19T05:30:49.259Z,17.97
2023-03-19T05:33:19.175Z,17.97
2023-03-19T05:35:47.989Z,18.47
2023-03-19T05:38:16.688Z,18.43
2023-03-19T05:40:45.236Z,16.23
2023-03-19T05:43:14.284Z,18.47
2023-03-19T05:45:43.707Z,19.40
2023-03-19T05:48:12.200Z,17.60
2023-03-19T05:50:42.779Z,20.30
2023-03-19T05:53:11.985Z,16.07
2023-03-19T05:55:40.846Z,18.57
2023-03-19T05:58:09.369Z,21.13
2023-03-19T06:00:37.928Z,21.90
2023-03-19T06:03:06.736Z,23.37
2023-03-19T06:05:35.468Z,20.67
2023-03-19T06:08:07.605Z,17.73
2023-03-19T06:10:37.246Z,21.13
2023-03-19T06:13:06.626Z,22.27
2023-03-19T06:15:35.555Z,19.87
2023-03-19T06:18:04.437Z,19.80
2023-03-19T06:20:34.974Z,22.67
2023-03-19T06:23:08.058Z,20.27
2023-03-19T06:25:36.894Z,21.73
2023-03-19T06:28:05.769Z,20.40
2023-03-19T06:30:34.626Z,20.57
2023-03-19T06:33:03.344Z,17.60
2023-03-19T06:35:32.386Z,16.77
2023-03-19T06:38:00.944Z,15.73
2023-03-19T06:40:30.965Z,19.30
2023-03-19T06:42:59.864Z,16.73
2023-03-19T06:45:28.447Z,17.63
2023-03-19T06:47:57.348Z,15.27
2023-03-19T06:50:26.596Z,15.40
2023-03-19T06:52:55.648Z,18.37
2023-03-19T06:55:24.195Z,14.70
2023-03-19T06:57:54.136Z,17.73
2023-03-19T07:00:23.929Z,19.17
2023-03-19T07:02:52.738Z,19.70
2023-03-19T07:05:21.689Z,16.07
2023-03-19T07:07:50.314Z,16.87
2023-03-19T07:10:21.241Z,20.73
2023-03-19T07:12:50.081Z,17.03
2023-03-19T07:15:21.609Z,16.90
2023-03-19T07:17:50.618Z,19.67
2023-03-19T07:20:19.451Z,21.73
2023-03-19T07:22:48.018Z,17.13
2023-03-19T07:25:16.785Z,18.60
2023-03-19T07:27:46.290Z,19.20
2023-03-19T07:30:16.190Z,18.17
2023-03-19T07:32:47.178Z,16.33
2023-03-19T07:35:15.758Z,18.80
2023-03-19T07:37:44.594Z,21.77
2023-03-19T07:40:13.695Z,18.77
2023-03-19T07:42:44.954Z,24.43
2023-03-19T07:45:14.571Z,21.47
2023-03-19T07:47:43.162Z,20.53
2023-03-19T07:50:14.366Z,22.33
2023-03-19T07:52:42.846Z,18.20
2023-03-19T07:55:11.905Z,18.20
2023-03-19T07:57:40.942Z,14.63
2023-03-19T08:00:10.857Z,17.93
2023-03-19T08:02:40.158Z,15.77
2023-03-19T08:05:09.778Z,14.57
2023-03-19T08:07:40.005Z,13.57
2023-03-19T08:10:10.182Z,13.60
2023-03-19T08:12:41.290Z,15.83
2023-03-19T08:15:11.890Z,14.10
2023-03-19T08:17:40.603Z,12.17
2023-03-19T08:20:11.432Z,14.27
2023-03-19T08:22:42.950Z,12.10
2023-03-19T08:25:12.492Z,14.97
2023-03-19T08:27:41.777Z,11.00
2023-03-19T08:30:12.868Z,15.90
2023-03-19T08:32:41.515Z,12.83
2023-03-19T08:35:11.006Z,13.40
2023-03-19T08:37:41.164Z,14.23
2023-03-19T08:40:12.131Z,11.27
2023-03-19T08:42:45.023Z,11.07
2023-03-19T08:45:16.833Z,13.00
2023-03-19T08:47:46.107Z,14.10
2023-03-19T08:50:14.973Z,15.27
2023-03-19T08:52:45.199Z,13.83
2023-03-19T08:55:14.000Z,12.20
2023-03-19T08:57:43.501Z,12.43
2023-03-19T09:00:14.025Z,13.50
2023-03-19T09:02:42.700Z,11.03
2023-03-19T09:05:12.557Z,12.17
2023-03-19T09:07:42.038Z,10.23
2023-03-19T09:10:12.708Z,8.50
2023-03-19T09:12:41.345Z,10.10
2023-03-19T09:15:15.052Z,9.60
2023-03-19T09:17:45.226Z,9.00
2023-03-19T09:20:14.809Z,14.70
2023-03-19T09:22:44.194Z,11.23
2023-03-19T09:25:14.591Z,12.77
2023-03-19T09:27:43.244Z,11.73
2023-03-19T09:30:16.434Z,14.10
2023-03-19T09:32:45.215Z,13.40
2023-03-19T09:35:14.005Z,13.20
2023-03-19T09:37:43.253Z,12.67
2023-03-19T09:40:22.643Z,12.60
2023-03-19T09:43:03.179Z,12.43
2023-03-19T09:45:32.146Z,12.30
2023-03-19T09:48:06.478Z,11.80
2023-03-19T09:50:36.662Z,11.27
2023-03-19T09:53:13.272Z,12.70
2023-03-19T09:55:46.039Z,11.77
2023-03-19T09:58:20.411Z,12.03
2023-03-19T10:00:53.918Z,13.07
2023-03-19T10:03:43.674Z,12.93
2023-03-19T10:06:31.270Z,11.93
2023-03-19T10:09:16.534Z,11.50
2023-03-19T10:12:04.460Z,12.23
2023-03-19T10:15:04.280Z,12.00
2023-03-19T10:17:38.596Z,12.57
2023-03-19T10:20:11.961Z,14.00
2023-03-19T10:22:46.408Z,12.50
2023-03-19T10:25:21.701Z,13.13
2023-03-19T10:27:57.447Z,13.70
2023-03-19T10:30:29.589Z,10.67
2023-03-19T10:33:13.697Z,12.33
2023-03-19T10:35:47.226Z,11.97
2023-03-19T10:38:22.402Z,12.27
2023-03-19T10:41:20.751Z,12.80
2023-03-19T10:43:57.799Z,13.20
2023-03-19T10:46:26.744Z,14.23
2023-03-19T10:48:55.707Z,14.37
2023-03-19T10:51:29.785Z,14.00
2023-03-19T10:54:02.520Z,13.13
2023-03-19T10:56:36.317Z,13.90
2023-03-19T10:59:22.891Z,14.47
2023-03-19T11:01:57.790Z,15.67
2023-03-19T11:04:28.995Z,17.10
2023-03-19T11:07:03.970Z,16.70
2023-03-19T11:09:41.709Z,16.90
2023-03-19T11:12:24.526Z,17.77
2023-03-19T11:14:57.713Z,19.97
2023-03-19T11:17:29.885Z,19.17
2023-03-19T11:20:00.061Z,20.37
2023-03-19T11:22:31.905Z,23.37
2023-03-19T11:25:04.277Z,26.63
2023-03-19T11:27:37.511Z,26.63
2023-03-19T11:30:18.739Z,27.83
2023-03-19T11:33:30.064Z,27.63
2023-03-19T11:36:06.914Z,27.67
2023-03-19T11:38:49.113Z,27.77
2023-03-19T11:41:25.003Z,27.33
2023-03-19T11:44:01.271Z,26.77
2023-03-19T11:46:43.443Z,27.00
2023-03-19T11:49:33.008Z,28.57
2023-03-19T11:52:10.106Z,29.63
2023-03-19T11:54:52.122Z,28.43
2023-03-19T11:57:29.957Z,30.07
2023-03-19T12:00:17.128Z,28.57
2023-03-19T12:03:20.313Z,29.43
2023-03-19T12:05:58.439Z,27.40
2023-03-19T12:08:39.892Z,26.90
2023-03-19T12:11:27.273Z,27.33
2023-03-19T12:14:14.415Z,27.70
2023-03-19T12:17:04.601Z,26.93
2023-03-19T12:20:00.887Z,25.60
2023-03-19T12:22:44.398Z,24.23
2023-03-19T12:25:30.389Z,21.43
2023-03-19T12:28:05.663Z,19.60
2023-03-19T12:30:39.004Z,16.37
2023-03-19T12:33:31.022Z,16.07
2023-03-19T12:36:03.590Z,14.80
2023-03-19T12:38:39.175Z,14.97
2023-03-19T12:41:12.847Z,15.63
2023-03-19T12:43:51.570Z,16.03
2023-03-19T12:46:26.267Z,15.63
2023-03-19T12:49:00.316Z,16.57
2023-03-19T12:51:36.933Z,16.17
2023-03-19T12:54:10.068Z,40.53
2023-03-19T12:56:45.833Z,31.00
2023-03-19T12:59:29.382Z,11.40
2023-03-19T13:02:03.658Z,11.10
2023-03-19T13:04:39.423Z,12.33
2023-03-19T13:07:23.307Z,14.03
2023-03-19T13:10:02.603Z,12.53
2023-03-19T13:12:37.386Z,11.57
2023-03-19T13:15:12.261Z,16.63
2023-03-19T13:17:50.392Z,12.30
2023-03-19T13:20:25.986Z,9.67
2023-03-19T13:23:01.177Z,7.23
2023-03-19T13:25:35.549Z,9.23
2023-03-19T13:28:09.517Z,9.63
2023-03-19T13:30:39.964Z,11.83
2023-03-19T13:33:18.511Z,11.17
2023-03-19T13:35:51.121Z,12.27
2023-03-19T13:38:26.402Z,14.00
2023-03-19T13:40:56.798Z,15.23
2023-03-19T13:43:56.005Z,14.47
2023-03-19T13:46:38.651Z,15.43
2023-03-19T13:49:34.019Z,15.20
2023-03-19T13:52:25.898Z,19.17
2023-03-19T13:54:58.116Z,12.57
2023-03-19T13:57:37.805Z,13.80
2023-03-19T14:00:45.591Z,13.73
2023-03-19T14:03:23.723Z,15.17
2023-03-19T14:05:55.139Z,13.00
2023-03-19T14:08:26.208Z,12.63
2023-03-19T14:10:59.513Z,11.87
2023-03-19T14:13:33.579Z,10.83
2023-03-19T14:16:16.844Z,11.13
2023-03-19T14:18:46.285Z,10.30
2023-03-19T14:21:21.782Z,10.20
2023-03-19T14:23:57.806Z,10.70
2023-03-19T14:26:30.319Z,9.83
2023-03-19T14:29:03.774Z,8.73
2023-03-19T14:31:43.048Z,8.57
2023-03-19T14:34:25.245Z,8.20
2023-03-19T14:36:59.939Z,7.40
2023-03-19T14:39:31.970Z,7.33
2023-03-19T14:42:07.703Z,6.13
2023-03-19T14:45:19.220Z,9.13
2023-03-19T14:48:14.158Z,9.70
2023-03-19T14:51:10.359Z,12.17
2023-03-19T14:53:42.753Z,9.93
2023-03-19T14:56:16.902Z,15.87
2023-03-19T14:58:55.713Z,10.67
2023-03-19T15:01:27.345Z,9.00
2023-03-19T15:04:00.305Z,11.43
2023-03-19T15:06:35.397Z,7.97
2023-03-19T15:09:07.645Z,8.60
2023-03-19T15:11:52.302Z,7.40
2023-03-19T15:14:43.764Z,7.97
2023-03-19T15:17:20.464Z,8.60
2023-03-19T15:19:49.945Z,7.90
2023-03-19T15:22:23.097Z,8.80
2023-03-19T15:24:52.584Z,9.07
2023-03-19T15:27:24.000Z,8.63
2023-03-19T15:30:03.232Z,9.83
2023-03-19T15:32:54.452Z,11.00
2023-03-19T15:35:35.152Z,15.23
2023-03-19T15:38:09.194Z,16.20
2023-03-19T15:40:39.529Z,21.57
2023-03-19T15:43:13.492Z,20.90
2023-03-19T15:45:47.931Z,20.83
2023-03-19T15:48:22.144Z,17.60
2023-03-19T15:50:53.866Z,17.70
2023-03-19T15:53:25.997Z,17.70
2023-03-19T15:55:56.766Z,13.80
2023-03-19T15:58:27.910Z,12.63
2023-03-19T16:01:01.040Z,17.57
2023-03-19T16:03:35.786Z,11.13
2023-03-19T16:06:07.692Z,7.77
2023-03-19T16:08:38.135Z,5.73
2023-03-19T16:11:27.031Z,23.67
2023-03-19T16:13:59.560Z,33.60
2023-03-19T16:16:32.727Z,13.00
2023-03-19T16:19:02.554Z,14.73
2023-03-19T16:21:36.487Z,11.33
2023-03-19T16:24:15.476Z,7.33
2023-03-19T16:26:45.775Z,5.20
2023-03-19T16:29:24.253Z,5.57
2023-03-19T16:31:58.297Z,6.17
2023-03-19T16:34:39.223Z,5.67
2023-03-19T16:37:33.602Z,5.03
2023-03-19T16:40:03.952Z,4.50
2023-03-19T16:42:40.580Z,4.57
2023-03-19T16:45:22.628Z,2.83
2023-03-19T16:47:54.481Z,6.20
2023-03-19T16:50:29.585Z,6.57
2023-03-19T16:53:00.021Z,5.07
2023-03-19T16:55:33.945Z,5.23
2023-03-19T16:58:06.640Z,4.97
2023-03-19T17:00:36.073Z,4.37
2023-03-19T17:03:12.517Z,6.10
2023-03-19T17:05:41.665Z,3.43
2023-03-19T17:08:11.739Z,5.50
2023-03-19T17:10:45.070Z,5.17
2023-03-19T17:13:20.054Z,6.70
2023-03-19T17:15:51.188Z,5.00
2023-03-19T17:18:24.459Z,6.63
2023-03-19T17:20:56.402Z,6.63
2023-03-19T17:23:27.304Z,6.33
2023-03-19T17:25:56.580Z,6.23
2023-03-19T17:28:25.751Z,4.37
2023-03-19T17:30:54.999Z,6.20
2023-03-19T17:33:28.145Z,3.23
2023-03-19T17:35:59.116Z,4.57
2023-03-19T17:38:33.553Z,5.80
2023-03-19T17:41:02.823Z,4.80
2023-03-19T17:43:32.112Z,5.57
2023-03-19T17:46:01.777Z,5.17
2023-03-19T17:48:32.154Z,4.33
2023-03-19T17:51:04.657Z,7.13
2023-03-19T17:53:34.871Z,5.83
2023-03-19T17:56:03.679Z,4.23
2023-03-19T17:58:32.916Z,5.30
2023-03-19T18:01:02.837Z,3.43
2023-03-19T18:03:35.600Z,4.53
2023-03-19T18:06:07.299Z,4.93
2023-03-19T18:08:36.430Z,6.43
2023-03-19T18:11:05.515Z,5.97
2023-03-19T18:13:34.519Z,7.87
2023-03-19T18:16:05.419Z,9.07
2023-03-19T18:18:36.345Z,5.97
2023-03-19T18:21:06.405Z,8.57
2023-03-19T18:23:35.750Z,5.50
2023-03-19T18:26:04.744Z,6.30
2023-03-19T18:28:34.656Z,6.10
2023-03-19T18:31:05.827Z,7.73
2023-03-19T18:33:37.409Z,7.53
2023-03-19T18:36:10.222Z,8.13
2023-03-19T18:38:39.430Z,9.37
2023-03-19T18:41:09.091Z,11.17
2023-03-19T18:43:38.077Z,9.60
2023-03-19T18:46:11.500Z,9.63
2023-03-19T18:48:42.964Z,6.97
2023-03-19T18:51:14.156Z,9.00
2023-03-19T18:53:43.535Z,10.30
2023-03-19T18:56:21.878Z,9.07
2023-03-19T18:58:52.716Z,9.90
2023-03-19T19:01:32.038Z,16.10
2023-03-19T19:04:06.344Z,18.43
2023-03-19T19:06:47.227Z,20.57
2023-03-19T19:09:20.794Z,17.87
2023-03-19T19:11:51.181Z,18.73
2023-03-19T19:14:23.796Z,18.27
2023-03-19T19:16:54.614Z,17.43
2023-03-19T19:19:27.909Z,15.60
2023-03-19T19:21:57.462Z,21.03
2023-03-19T19:24:26.506Z,19.60
2023-03-19T19:26:56.978Z,20.00
2023-03-19T19:29:28.734Z,18.20
2023-03-19T19:31:57.852Z,23.17
2023-03-19T19:34:28.684Z,17.67
2023-03-19T19:37:00.588Z,18.17
2023-03-19T19:39:31.926Z,22.67
2023-03-19T19:42:33.712Z,21.47
2023-03-19T19:45:08.189Z,21.13
2023-03-19T19:47:37.107Z,20.27
2023-03-19T19:50:20.557Z,20.37
2023-03-19T19:52:50.048Z,18.17
2023-03-19T19:55:22.104Z,22.63
2023-03-19T19:57:52.561Z,20.37
2023-03-19T20:00:30.423Z,20.87
2023-03-19T20:03:03.950Z,19.00
2023-03-19T20:05:40.111Z,20.57
2023-03-19T20:08:15.029Z,20.53
2023-03-19T20:10:51.962Z,21.37
2023-03-19T20:13:29.092Z,20.57
2023-03-19T20:16:01.645Z,17.33
2023-03-19T20:18:38.861Z,19.50
2023-03-19T20:21:13.620Z,19.47
2023-03-19T20:23:46.293Z,21.30
2023-03-19T20:26:22.849Z,21.87
2023-03-19T20:29:31.020Z,21.10
2023-03-19T20:32:01.548Z,18.80
2023-03-19T20:34:39.029Z,19.13
2023-03-19T20:37:17.717Z,16.40
2023-03-19T20:39:47.290Z,19.67
2023-03-19T20:42:18.431Z,20.73
2023-03-19T20:45:04.296Z,24.60
2023-03-19T20:47:36.831Z,21.73
2023-03-19T20:50:24.656Z,22.03
2023-03-19T20:53:01.463Z,23.30
2023-03-19T20:55:36.015Z,20.93
2023-03-19T20:58:14.632Z,22.13
2023-03-19T21:00:44.929Z,23.57
2023-03-19T21:03:20.261Z,24.87
2023-03-19T21:05:52.222Z,20.90
2023-03-19T21:08:32.980Z,20.13
2023-03-19T21:11:05.183Z,24.47
2023-03-19T21:13:35.105Z,23.87
2023-03-19T21:16:07.968Z,23.57
2023-03-19T21:18:37.967Z,19.30
2023-03-19T21:21:12.842Z,21.23
2023-03-19T21:23:50.687Z,22.03
2023-03-19T21:26:28.501Z,27.20
2023-03-19T21:29:06.141Z,25.37
2023-03-19T21:31:35.843Z,25.73
2023-03-19T21:34:08.192Z,24.97
2023-03-19T21:36:37.029Z,25.63
2023-03-19T21:39:09.852Z,22.80
2023-03-19T21:41:43.093Z,26.00
2023-03-19T21:44:22.064Z,29.33
2023-03-19T21:46:51.500Z,30.53
2023-03-19T21:49:22.486Z,30.07
2023-03-19T21:51:51.747Z,28.23
2023-03-19T21:54:22.027Z,28.27
2023-03-19T21:56:51.151Z,32.37
2023-03-19T21:59:24.282Z,30.13
2023-03-19T22:01:54.088Z,31.17
2023-03-19T22:04:22.804Z,29.80
2023-03-19T22:06:51.504Z,33.70
2023-03-19T22:09:25.625Z,32.77
2023-03-19T22:11:54.315Z,33.43
2023-03-19T22:14:28.610Z,33.80
2023-03-19T22:16:59.638Z,36.13
2023-03-19T22:19:29.376Z,38.10
2023-03-19T22:21:58.138Z,43.07
2023-03-19T22:24:28.209Z,41.37
2023-03-19T22:26:59.385Z,40.30
2023-03-19T22:29:28.275Z,46.07
2023-03-19T22:31:57.947Z,44.20
2023-03-19T22:34:29.082Z,39.40
2023-03-19T22:36:58.882Z,42.50
2023-03-19T22:39:29.635Z,41.53
2023-03-19T22:41:58.576Z,41.23
2023-03-19T22:44:30.111Z,40.70
2023-03-19T22:47:00.922Z,37.93
2023-03-19T22:49:30.491Z,44.70
2023-03-19T22:51:59.905Z,42.67
2023-03-19T22:54:30.869Z,38.70
2023-03-19T22:56:59.567Z,39.10
2023-03-19T22:59:29.751Z,36.57
2023-03-19T23:01:59.248Z,42.83
2023-03-19T23:04:30.770Z,34.47
2023-03-19T23:07:01.348Z,39.23
2023-03-19T23:09:33.282Z,34.03
2023-03-19T23:12:03.368Z,30.07
2023-03-19T23:14:32.839Z,30.30
2023-03-19T23:17:04.000Z,28.57
2023-03-19T23:19:34.089Z,27.40
2023-03-19T23:22:05.093Z,26.73
2023-03-19T23:24:35.442Z,25.07
2023-03-19T23:27:05.887Z,26.63
2023-03-19T23:29:39.941Z,25.47
2023-03-19T23:32:08.773Z,24.53
2023-03-19T23:34:54.134Z,23.77
2023-03-19T23:37:26.337Z,25.63
2023-03-19T23:39:56.491Z,23.03
2023-03-19T23:42:29.761Z,25.70
2023-03-19T23:45:01.506Z,27.53
2023-03-19T23:47:31.519Z,24.77
2023-03-19T23:50:00.248Z,27.47
2023-03-19T23:52:29.141Z,26.47
2023-03-19T23:54:59.764Z,24.50
2023-03-19T23:57:30.253Z,24.47
2023-03-19T23:59:59.436Z,24.47
